ASP weather

Alice Springs Airport
Alice Springs, Northern Territory, Australia

Public forecast

Using degrees Celsius for public forecast. Weather courtesy of forecast.io.

METAR (pilot weather report)

Retrieved 2017/09/20 21:30 UTC (0 seconds ago):

YBAS 202130Z AUTO 35007KT 9999 // NCD 20/M05 Q1014 RF00.0/000.0

TAF (pilot weather forecast)

Retrieved 2017/09/20 18:00 UTC (3 hours ago):

TAF YBAS 201706Z 2018/2118 33006KT CAVOK FM202300 32013KT CAVOK FM210600 28007KT CAVOK